Time;durP1;ratioP1;P1;durP2;ratioP2;P2;SDS_P1;SDS_P2;PMS_P1;PMS_P2;Temp;Humidity;BMP_temperature;BMP_pressure;BME280_temperature;BME280_humidity;BME280_pressure;Samples;Min_cycle;Max_cycle;Signal;HPM_P1;HPM_P2
2023/10/23 00:01:58;;;;;;;0.10;0.10;;;;;;;14.79;66.13;99897.50;4474605;32;33029;-81
2023/10/23 00:04:26;;;;;;;0.08;0.05;;;;;;;14.78;66.08;99900.25;4475128;32;33202;-81
2023/10/23 00:06:54;;;;;;;0.10;0.00;;;;;;;14.72;65.94;99892.66;4461658;32;33919;-81
2023/10/23 00:09:22;;;;;;;0.10;0.00;;;;;;;14.69;65.77;99891.03;4471662;32;33302;-81
2023/10/23 00:11:50;;;;;;;0.05;0.05;;;;;;;14.68;65.84;99885.81;4449153;32;33189;-80
2023/10/23 00:14:17;;;;;;;0.50;0.43;;;;;;;14.50;66.62;99885.94;4460926;32;33508;-81
2023/10/23 00:16:45;;;;;;;0.20;0.20;;;;;;;14.59;65.94;99882.75;4474255;32;33137;-81
2023/10/23 00:19:13;;;;;;;0.00;0.00;;;;;;;14.44;66.65;99880.97;4473105;32;32763;-81
2023/10/23 00:21:40;;;;;;;0.00;0.00;;;;;;;14.52;66.57;99884.03;4460478;32;33199;-81
2023/10/23 00:24:08;;;;;;;0.10;0.10;;;;;;;14.39;66.88;99880.38;4461861;32;33190;-80
2023/10/23 00:26:36;;;;;;;0.00;0.00;;;;;;;14.38;67.01;99878.63;4473371;32;34610;-81
2023/10/23 00:29:04;;;;;;;0.25;0.25;;;;;;;14.43;67.04;99884.56;4474385;32;34194;-80
2023/10/23 00:31:32;;;;;;;0.10;0.10;;;;;;;14.47;67.08;99891.41;4474539;32;34116;-79
2023/10/23 00:34:00;;;;;;;1.08;0.45;;;;;;;14.74;65.40;99893.41;4446821;32;32530;-81
2023/10/23 00:36:27;;;;;;;0.00;0.00;;;;;;;14.94;64.31;99889.56;4460584;32;32593;-80
2023/10/23 00:38:55;;;;;;;0.00;0.00;;;;;;;14.47;65.56;99891.41;4473384;32;34330;-81
2023/10/23 00:41:23;;;;;;;0.10;0.10;;;;;;;14.32;66.66;99897.59;4474315;32;34089;-80
2023/10/23 00:43:50;;;;;;;0.00;0.00;;;;;;;14.30;66.49;99902.16;4448342;32;32451;-80
2023/10/23 00:46:19;;;;;;;0.00;0.00;;;;;;;14.31;66.84;99901.22;4461507;32;33793;-80
2023/10/23 00:48:47;;;;;;;1.02;0.50;;;;;;;14.49;66.18;99897.53;4473284;32;33874;-81
2023/10/23 00:51:16;;;;;;;0.00;0.00;;;;;;;14.49;66.12;99900.19;4473677;32;34638;-81
2023/10/23 00:53:44;;;;;;;0.32;0.32;;;;;;;14.49;65.81;99900.19;4465470;32;33651;-81
2023/10/23 00:56:12;;;;;;;0.47;0.37;;;;;;;14.42;66.01;99901.44;4461338;32;34347;-81
2023/10/23 00:58:42;;;;;;;0.30;0.30;;;;;;;14.43;65.91;99895.19;4461465;32;32520;-82
2023/10/23 01:01:11;;;;;;;0.57;0.57;;;;;;;14.35;65.94;99887.66;4463080;32;34098;-81
2023/10/23 01:03:40;;;;;;;0.40;0.40;;;;;;;14.38;65.86;99891.94;4477309;32;34492;-82
2023/10/23 01:06:09;;;;;;;0.95;0.30;;;;;;;14.23;66.18;99887.50;4474079;32;32748;-81
2023/10/23 01:08:37;;;;;;;0.20;0.20;;;;;;;14.17;66.58;99887.88;4461857;32;34393;-81
2023/10/23 01:11:05;;;;;;;0.43;0.43;;;;;;;14.15;66.54;99890.62;4477410;32;33737;-81
2023/10/23 01:13:33;;;;;;;0.57;0.57;;;;;;;14.20;66.34;99891.22;4476903;32;33277;-81
2023/10/23 01:16:01;;;;;;;0.60;0.60;;;;;;;14.16;66.00;99891.47;4465531;32;34540;-80
2023/10/23 01:18:29;;;;;;;0.03;0.03;;;;;;;14.07;66.38;99893.69;4474254;32;32261;-80
2023/10/23 01:20:57;;;;;;;1.02;0.37;;;;;;;14.12;66.34;99901.41;4461750;32;34006;-80
2023/10/23 01:23:27;;;;;;;0.00;0.00;;;;;;;14.16;65.71;99902.94;4450428;32;32471;-82
2023/10/23 01:25:55;;;;;;;0.15;0.15;;;;;;;13.87;66.71;99904.59;4477181;32;34692;-82
2023/10/23 01:28:24;;;;;;;0.32;0.17;;;;;;;13.92;66.69;99899.03;4462899;32;34413;-82
2023/10/23 01:30:53;;;;;;;0.00;0.00;;;;;;;14.01;66.41;99904.66;4450345;32;34114;-82
2023/10/23 01:33:22;;;;;;;0.17;0.17;;;;;;;13.98;66.63;99909.28;4461221;32;32506;-81
2023/10/23 01:35:49;;;;;;;0.43;0.43;;;;;;;13.95;66.41;99902.34;4477544;32;34337;-80
2023/10/23 01:38:18;;;;;;;8.30;0.30;;;;;;;14.05;65.98;99900.91;4474075;32;33218;-81
2023/10/23 01:40:46;;;;;;;1.20;0.52;;;;;;;14.04;65.41;99899.16;4475925;32;34242;-81
2023/10/23 01:43:15;;;;;;;0.40;0.40;;;;;;;13.82;66.03;99906.62;4472329;32;33602;-80
2023/10/23 01:45:42;;;;;;;0.10;0.10;;;;;;;13.87;66.45;99901.94;4475673;32;34500;-81
2023/10/23 01:48:10;;;;;;;0.00;0.00;;;;;;;13.84;66.49;99904.75;4473205;32;33177;-80
2023/10/23 01:50:38;;;;;;;0.30;0.30;;;;;;;13.95;66.32;99897.03;4460892;32;34637;-80
2023/10/23 01:53:08;;;;;;;0.30;0.30;;;;;;;14.00;65.77;99889.66;4448928;32;33425;-80
2023/10/23 01:55:36;;;;;;;0.10;0.10;;;;;;;13.90;65.69;99895.56;4455575;32;33677;-80
2023/10/23 01:58:04;;;;;;;0.00;0.00;;;;;;;13.91;65.91;99903.47;4474433;32;33207;-80
2023/10/23 02:00:32;;;;;;;5.37;0.13;;;;;;;13.87;65.96;99901.94;4472487;32;34189;-79
2023/10/23 02:03:00;;;;;;;0.00;0.00;;;;;;;13.87;66.01;99907.25;4462617;32;35039;-80
2023/10/23 02:05:28;;;;;;;0.00;0.00;;;;;;;13.69;66.53;99898.47;4463420;32;34677;-79
2023/10/23 02:07:55;;;;;;;0.10;0.10;;;;;;;13.77;66.06;99903.38;4475518;32;33913;-81
2023/10/23 02:10:23;;;;;;;0.00;0.00;;;;;;;13.76;66.22;99909.59;4461111;32;33222;-81
2023/10/23 02:12:51;;;;;;;0.08;0.08;;;;;;;13.76;66.07;99896.34;4462482;32;33549;-80
2023/10/23 02:15:18;;;;;;;0.03;0.00;;;;;;;13.66;66.18;99903.09;4448669;32;32870;-82
2023/10/23 02:17:47;;;;;;;0.00;0.00;;;;;;;13.59;66.18;99905.25;4463072;32;33542;-81
2023/10/23 02:20:15;;;;;;;1.00;0.68;;;;;;;13.51;66.42;99895.03;4461187;32;34216;-82
2023/10/23 02:22:43;;;;;;;1.30;0.55;;;;;;;13.60;65.75;99895.47;4464099;32;33573;-81
2023/10/23 02:25:11;;;;;;;0.00;0.00;;;;;;;13.54;66.14;99901.97;4477980;32;33446;-81
2023/10/23 02:27:39;;;;;;;0.00;0.00;;;;;;;13.64;65.79;99902.34;4461700;32;34375;-81
2023/10/23 02:30:07;;;;;;;0.70;0.57;;;;;;;13.32;66.60;99894.31;4459140;32;34163;-81
2023/10/23 02:32:35;;;;;;;0.25;0.25;;;;;;;13.22;66.72;99906.34;4474267;32;33714;-81
2023/10/23 02:35:03;;;;;;;0.03;0.03;;;;;;;13.36;66.25;99897.66;4463529;32;32776;-81
2023/10/23 02:37:30;;;;;;;0.00;0.00;;;;;;;13.56;65.65;99908.03;4463388;32;34009;-81
2023/10/23 02:39:59;;;;;;;0.08;0.08;;;;;;;13.37;66.20;99907.31;4462848;32;33681;-81
2023/10/23 02:42:27;;;;;;;0.10;0.10;;;;;;;13.41;66.12;99911.53;4475231;32;34087;-81
2023/10/23 02:44:55;;;;;;;0.00;0.00;;;;;;;13.37;66.23;99913.50;4475037;32;33449;-82
2023/10/23 02:47:22;;;;;;;0.00;0.00;;;;;;;13.24;66.58;99912.41;4450939;32;33012;-82
2023/10/23 02:49:53;;;;;;;0.10;0.10;;;;;;;13.28;66.37;99911.31;4460154;32;33445;-82
2023/10/23 02:52:21;;;;;;;0.05;0.00;;;;;;;13.24;66.39;99915.06;4476196;32;33187;-82
2023/10/23 02:54:50;;;;;;;0.10;0.10;;;;;;;13.26;66.37;99915.88;4460364;32;33712;-82
2023/10/23 02:57:18;;;;;;;0.22;0.22;;;;;;;13.17;66.45;99913.66;4476531;32;34442;-82
2023/10/23 02:59:49;;;;;;;0.03;0.03;;;;;;;13.30;66.35;99917.41;4462944;32;34164;-80
2023/10/23 03:02:17;;;;;;;0.20;0.17;;;;;;;13.38;66.07;99909.87;4461182;32;32433;-81
2023/10/23 03:04:45;;;;;;;0.00;0.00;;;;;;;13.31;66.08;99911.16;4463401;32;32600;-81
2023/10/23 03:07:13;;;;;;;0.52;0.37;;;;;;;13.26;66.41;99922.03;4474834;32;33983;-81
2023/10/23 03:09:41;;;;;;;0.00;0.00;;;;;;;13.26;66.29;99926.47;4460915;32;33335;-80
2023/10/23 03:12:09;;;;;;;0.00;0.00;;;;;;;13.19;66.52;99936.50;4475349;32;32463;-80
2023/10/23 03:14:36;;;;;;;0.10;0.10;;;;;;;13.19;66.65;99919.72;4447333;32;32555;-80
2023/10/23 03:17:04;;;;;;;0.00;0.00;;;;;;;13.29;66.38;99924.53;4473505;32;33980;-81
2023/10/23 03:19:32;;;;;;;0.00;0.00;;;;;;;13.07;66.79;99924.75;4458926;32;34078;-80
2023/10/23 03:21:59;;;;;;;2.80;1.20;;;;;;;13.12;66.87;99923.66;4460376;32;34446;-81
2023/10/23 03:24:27;;;;;;;0.30;0.05;;;;;;;13.14;66.15;99921.75;4462353;32;33835;-81
2023/10/23 03:26:57;;;;;;;1.02;0.98;;;;;;;13.20;66.33;99924.13;4473404;32;34726;-81
2023/10/23 03:29:25;;;;;;;0.20;0.20;;;;;;;13.08;66.97;99923.81;4463968;32;32976;-81
2023/10/23 03:31:52;;;;;;;0.20;0.20;;;;;;;13.23;66.66;99929.28;4464075;32;32548;-80
2023/10/23 03:34:20;;;;;;;0.10;0.05;;;;;;;13.31;66.30;99933.25;4472521;32;33897;-80
2023/10/23 03:36:48;;;;;;;0.03;0.03;;;;;;;13.18;66.58;99934.78;4472406;32;34167;-80
2023/10/23 03:39:15;;;;;;;0.60;0.60;;;;;;;13.21;66.71;99937.28;4462136;32;33251;-80
2023/10/23 03:41:43;;;;;;;0.10;0.10;;;;;;;13.24;66.42;99928.31;4472723;32;31919;-80
2023/10/23 03:44:11;;;;;;;0.00;0.00;;;;;;;13.15;66.90;99937.63;4475381;32;34251;-80
2023/10/23 03:46:40;;;;;;;0.00;0.00;;;;;;;13.30;66.46;99941.28;4479086;32;32369;-81
2023/10/23 03:49:08;;;;;;;0.10;0.10;;;;;;;13.23;66.56;99939.87;4450244;32;33021;-80
2023/10/23 03:51:35;;;;;;;0.00;0.00;;;;;;;13.25;66.43;99940.66;4470838;32;187276;-81
2023/10/23 03:54:03;;;;;;;0.00;0.00;;;;;;;13.21;66.80;99941.72;4461644;32;34570;-80
2023/10/23 03:56:31;;;;;;;0.00;0.00;;;;;;;13.23;66.69;99938.06;4447794;32;32935;-81
2023/10/23 03:59:00;;;;;;;0.00;0.00;;;;;;;13.14;66.78;99935.88;4474469;32;33888;-81
2023/10/23 04:01:29;;;;;;;0.00;0.00;;;;;;;13.25;66.91;99930.06;4475510;32;33938;-82
2023/10/23 04:03:57;;;;;;;0.20;0.20;;;;;;;13.22;66.52;99941.69;4461945;32;33908;-82
2023/10/23 04:06:24;;;;;;;0.20;0.20;;;;;;;13.21;66.49;99944.38;4473402;32;33522;-81
2023/10/23 04:08:52;;;;;;;0.17;0.10;;;;;;;13.29;66.02;99942.19;4470224;32;34918;-81
2023/10/23 04:11:22;;;;;;;0.00;0.00;;;;;;;13.33;66.08;99946.41;4464096;32;33139;-81
2023/10/23 04:13:55;;;;;;;0.05;0.05;;;;;;;13.29;66.20;99953.69;4475895;32;33571;-81
2023/10/23 04:16:23;;;;;;;0.00;0.00;;;;;;;13.27;66.38;99955.53;4461345;32;34353;-81
2023/10/23 04:18:51;;;;;;;0.00;0.00;;;;;;;13.32;66.20;99953.50;4461379;32;34190;-81
2023/10/23 04:21:20;;;;;;;1.48;0.20;;;;;;;13.27;66.19;99960.00;4449051;32;32414;-82
2023/10/23 04:23:48;;;;;;;0.00;0.00;;;;;;;13.22;66.25;99960.22;4473357;32;33446;-81
2023/10/23 04:26:16;;;;;;;0.60;0.60;;;;;;;13.25;65.98;99969.84;4461627;32;34619;-81
2023/10/23 04:28:44;;;;;;;0.00;0.00;;;;;;;13.24;66.54;99970.75;4474410;32;33712;-81
2023/10/23 04:31:12;;;;;;;0.20;0.20;;;;;;;13.26;66.29;99971.53;4462002;32;33594;-81
2023/10/23 04:33:40;;;;;;;0.10;0.10;;;;;;;13.19;66.11;99970.09;4462617;32;33878;-82
2023/10/23 04:36:07;;;;;;;1.83;0.62;;;;;;;13.21;66.55;99965.59;4464522;32;33614;-81
2023/10/23 04:38:35;;;;;;;0.98;0.98;;;;;;;13.24;66.09;99958.34;4463308;32;34395;-81
2023/10/23 04:41:03;;;;;;;0.52;0.37;;;;;;;13.24;66.31;99960.16;4449444;32;32288;-81
2023/10/23 04:43:31;;;;;;;1.62;1.52;;;;;;;13.39;65.78;99963.78;4463970;32;33908;-80
2023/10/23 04:45:59;;;;;;;3.25;1.50;;;;;;;13.29;66.02;99974.03;4478978;32;34777;-81
2023/10/23 04:48:27;;;;;;;0.45;0.45;;;;;;;13.21;66.29;99970.91;4474596;32;33507;-80
2023/10/23 04:50:59;;;;;;;1.12;1.10;;;;;;;13.10;66.37;99975.88;4463731;32;33559;-80
2023/10/23 04:53:27;;;;;;;0.40;0.40;;;;;;;12.99;66.74;99966.69;4462798;32;32468;-81
2023/10/23 04:55:55;;;;;;;0.30;0.30;;;;;;;13.11;66.59;99970.50;4463314;32;33066;-80
2023/10/23 04:58:23;;;;;;;0.20;0.20;;;;;;;13.18;66.25;99974.56;4475756;32;33707;-79
2023/10/23 05:00:52;;;;;;;0.32;0.32;;;;;;;13.14;66.42;99973.00;4476051;32;32597;-81
2023/10/23 05:03:19;;;;;;;7.95;1.50;;;;;;;13.06;66.89;99973.41;4462692;32;34537;-81
2023/10/23 05:05:48;;;;;;;0.60;0.60;;;;;;;13.06;66.80;99970.75;4475208;32;33977;-81
2023/10/23 05:08:16;;;;;;;0.90;0.30;;;;;;;13.12;67.03;99966.94;4462865;32;32965;-81
2023/10/23 05:10:43;;;;;;;0.68;0.68;;;;;;;13.07;67.10;99967.16;4474632;32;33954;-81
2023/10/23 05:13:11;;;;;;;0.50;0.40;;;;;;;13.26;66.14;99964.44;4475084;32;33884;-81
2023/10/23 05:15:39;;;;;;;1.58;1.10;;;;;;;13.17;66.64;99970.19;4449224;32;32942;-81
2023/10/23 05:18:07;;;;;;;1.02;0.95;;;;;;;13.11;66.73;99967.00;4478179;32;34815;-81
2023/10/23 05:20:36;;;;;;;1.10;1.00;;;;;;;13.18;66.66;99973.69;4474363;32;33325;-81
2023/10/23 05:23:04;;;;;;;0.22;0.22;;;;;;;13.20;66.94;99969.19;4460907;32;32999;-81
2023/10/23 05:25:35;;;;;;;0.88;0.43;;;;;;;13.18;67.20;99966.59;4474741;32;34178;-82
2023/10/23 05:28:02;;;;;;;0.55;0.32;;;;;;;13.18;67.16;99968.41;4458756;32;34285;-81
2023/10/23 05:30:30;;;;;;;0.17;0.17;;;;;;;13.33;66.59;99970.28;4475755;32;33525;-81
2023/10/23 05:32:58;;;;;;;1.62;0.77;;;;;;;13.34;67.18;99972.00;4461870;32;34563;-81
2023/10/23 05:35:26;;;;;;;0.00;0.00;;;;;;;13.37;66.72;99969.19;4476449;32;33983;-81
2023/10/23 05:37:54;;;;;;;0.10;0.10;;;;;;;13.38;66.59;99976.19;4477963;32;34230;-81
2023/10/23 05:40:21;;;;;;;0.17;0.17;;;;;;;13.24;67.27;99989.31;4460733;32;32561;-82
2023/10/23 05:42:49;;;;;;;0.50;0.50;;;;;;;13.44;66.78;99991.81;4478973;32;34480;-82
2023/10/23 05:45:17;;;;;;;0.82;0.82;;;;;;;13.54;66.24;99992.19;4462858;32;34600;-82
2023/10/23 05:47:45;;;;;;;0.17;0.17;;;;;;;13.84;64.99;99987.03;4463953;32;33041;-82
2023/10/23 05:50:12;;;;;;;0.20;0.20;;;;;;;13.57;65.71;99994.66;4461753;32;34088;-82
2023/10/23 05:52:40;;;;;;;0.17;0.17;;;;;;;13.32;67.02;100000.37;4474693;32;33449;-81
2023/10/23 05:55:08;;;;;;;0.10;0.10;;;;;;;13.42;67.28;100000.78;4462456;32;34881;-81
2023/10/23 05:57:36;;;;;;;0.10;0.05;;;;;;;13.53;67.05;100009.91;4468621;32;34515;-81
2023/10/23 06:00:04;;;;;;;0.20;0.20;;;;;;;13.72;66.37;100012.44;4461726;32;33278;-81
2023/10/23 06:02:33;;;;;;;0.20;0.20;;;;;;;13.71;66.30;100007.19;4463357;32;32861;-80
2023/10/23 06:05:01;;;;;;;0.22;0.22;;;;;;;13.66;66.95;100011.88;4476300;32;33924;-81
2023/10/23 06:07:29;;;;;;;0.00;0.00;;;;;;;13.73;67.05;100011.50;4452469;32;33556;-81
2023/10/23 06:09:58;;;;;;;0.62;0.52;;;;;;;13.87;66.76;100017.88;4462776;32;33435;-80
2023/10/23 06:12:26;;;;;;;0.20;0.00;;;;;;;13.79;67.53;100011.16;4474450;32;33892;-81
2023/10/23 06:14:54;;;;;;;0.00;0.00;;;;;;;13.70;68.33;100024.06;4476851;32;33977;-81
2023/10/23 06:17:22;;;;;;;0.22;0.22;;;;;;;13.82;67.97;100026.06;4475787;32;34508;-81
2023/10/23 06:19:50;;;;;;;0.08;0.05;;;;;;;13.98;67.67;100018.97;4448784;32;32864;-81
2023/10/23 06:22:17;;;;;;;0.00;0.00;;;;;;;14.09;67.53;100021.03;4475106;32;33865;-81
2023/10/23 06:24:46;;;;;;;3.03;1.45;;;;;;;14.21;67.43;100022.19;4460574;32;33239;-81
2023/10/23 06:27:14;;;;;;;0.10;0.10;;;;;;;14.22;67.25;100027.41;4463240;32;34109;-82
2023/10/23 06:29:41;;;;;;;0.15;0.15;;;;;;;14.20;67.54;100031.09;4460728;32;33121;-81
2023/10/23 06:32:11;;;;;;;3.92;1.67;;;;;;;14.19;67.66;100032.03;4462252;32;32801;-81
2023/10/23 06:34:39;;;;;;;1.45;1.42;;;;;;;14.31;67.59;100026.91;4460719;32;34230;-81
2023/10/23 06:37:07;;;;;;;1.20;0.88;;;;;;;14.37;67.62;100025.69;4462205;32;33251;-81
2023/10/23 06:39:35;;;;;;;0.10;0.10;;;;;;;14.43;67.43;100027.16;4462564;32;33882;-81
2023/10/23 06:42:04;;;;;;;0.22;0.22;;;;;;;14.56;67.12;100039.69;4460909;32;33561;-81
2023/10/23 06:44:32;;;;;;;0.57;0.57;;;;;;;14.66;66.96;100039.19;4462555;32;34538;-81
2023/10/23 06:46:59;;;;;;;0.13;0.10;;;;;;;14.57;67.31;100035.22;4462736;32;33335;-80
2023/10/23 06:49:27;;;;;;;2.05;1.45;;;;;;;14.73;67.26;100024.63;4476607;32;32753;-80
2023/10/23 06:51:54;;;;;;;1.20;0.65;;;;;;;14.78;67.37;100027.84;4474920;32;33972;-82
2023/10/23 06:54:23;;;;;;;0.00;0.00;;;;;;;14.82;67.53;100022.28;4475478;32;34707;-81
2023/10/23 06:56:51;;;;;;;0.45;0.45;;;;;;;14.93;66.93;100024.31;4475338;32;33851;-82
2023/10/23 06:59:19;;;;;;;0.00;0.00;;;;;;;15.31;66.34;100015.88;4462913;32;33350;-81
2023/10/23 07:01:46;;;;;;;0.60;0.60;;;;;;;15.33;66.51;100020.16;4477294;32;33827;-82
2023/10/23 07:04:14;;;;;;;1.40;0.43;;;;;;;15.36;66.41;100024.44;4462475;32;34407;-82
2023/10/23 07:06:42;;;;;;;0.57;0.52;;;;;;;15.56;66.76;100023.22;4473655;32;33149;-81
2023/10/23 07:09:11;;;;;;;0.65;0.60;;;;;;;15.52;66.66;100030.53;4475117;32;33639;-81
2023/10/23 07:11:38;;;;;;;1.27;0.85;;;;;;;15.49;66.94;100036.06;4461135;32;34646;-81
2023/10/23 07:14:06;;;;;;;0.40;0.40;;;;;;;15.70;66.76;100025.94;4476512;32;32789;-81
2023/10/23 07:16:33;;;;;;;0.10;0.08;;;;;;;15.82;67.07;100032.34;4473640;32;34909;-81
2023/10/23 07:19:04;;;;;;;0.28;0.28;;;;;;;16.30;65.20;100024.88;4461482;32;33266;-81
2023/10/23 07:21:32;;;;;;;0.45;0.43;;;;;;;16.16;64.81;100015.09;4461046;32;33546;-81
2023/10/23 07:24:00;;;;;;;0.52;0.52;;;;;;;16.19;65.17;100027.34;4463354;32;33719;-81
2023/10/23 07:26:28;;;;;;;0.77;0.77;;;;;;;16.82;61.82;100017.06;4475014;32;34181;-81
2023/10/23 07:28:56;;;;;;;0.93;0.75;;;;;;;16.81;61.64;100017.16;4477896;32;34000;-81
2023/10/23 07:31:24;;;;;;;0.90;0.50;;;;;;;16.90;61.91;100021.84;4448977;32;32965;-81
2023/10/23 07:33:52;;;;;;;0.22;0.22;;;;;;;16.67;62.71;100035.84;4476125;32;33395;-81
2023/10/23 07:36:19;;;;;;;0.35;0.35;;;;;;;16.83;62.51;100040.09;4460974;32;33853;-81
2023/10/23 07:38:47;;;;;;;0.28;0.28;;;;;;;16.81;62.56;100027.81;4460124;32;32634;-81
2023/10/23 07:41:15;;;;;;;0.20;0.20;;;;;;;16.81;62.45;100027.81;4464067;31;32765;-81
2023/10/23 07:43:43;;;;;;;0.50;0.50;;;;;;;16.87;62.23;100038.09;4475477;32;33635;-81
2023/10/23 07:46:12;;;;;;;1.02;0.40;;;;;;;16.74;62.87;100038.03;4460950;32;33938;-80
2023/10/23 07:48:45;;;;;;;0.90;0.75;;;;;;;16.90;63.03;100043.19;4449463;32;32239;-81
2023/10/23 07:51:14;;;;;;;0.65;0.65;;;;;;;17.14;62.08;100049.59;4452560;32;34357;-81
2023/10/23 07:53:41;;;;;;;0.62;0.50;;;;;;;17.21;62.13;100046.50;4471790;32;34900;-81
2023/10/23 07:56:12;;;;;;;1.17;0.90;;;;;;;17.22;62.52;100048.22;4460894;32;34782;-81
2023/10/23 07:58:40;;;;;;;1.92;1.15;;;;;;;17.26;62.84;100055.06;4459022;32;33512;-81
2023/10/23 08:01:10;;;;;;;3.55;1.62;;;;;;;17.52;62.04;100050.59;4450098;32;33781;-81
2023/10/23 08:03:38;;;;;;;1.10;0.98;;;;;;;17.29;62.85;100055.72;4460221;32;33100;-81
2023/10/23 08:06:08;;;;;;;1.30;1.20;;;;;;;17.46;62.91;100041.19;4462805;32;33193;-82
2023/10/23 08:08:39;;;;;;;1.10;0.82;;;;;;;17.37;62.55;100036.50;4448425;32;32618;-82
2023/10/23 08:11:08;;;;;;;0.75;0.62;;;;;;;17.34;63.54;100042.06;4453423;32;32840;-80
2023/10/23 08:13:36;;;;;;;1.20;0.98;;;;;;;17.01;63.75;100040.69;4475846;32;34008;-80
2023/10/23 08:16:04;;;;;;;1.17;0.95;;;;;;;17.33;63.81;100027.00;4474370;32;33972;-83
2023/10/23 08:18:36;;;;;;;1.50;1.23;;;;;;;17.37;63.19;100020.47;4461792;32;32551;-80
2023/10/23 08:21:15;;;;;;;0.90;0.90;;;;;;;17.32;62.90;100023.44;4475209;32;31956;-80
2023/10/23 08:23:46;;;;;;;1.75;0.82;;;;;;;17.89;61.53;100022.22;4460442;32;33862;-80
2023/10/23 08:26:14;;;;;;;1.27;1.17;;;;;;;17.78;62.18;100024.81;4462269;32;33589;-80
2023/10/23 08:28:42;;;;;;;1.55;1.23;;;;;;;18.13;60.68;100024.97;4461421;32;34211;-80
2023/10/23 08:31:30;;;;;;;2.33;1.08;;;;;;;18.06;60.93;100027.25;4418400;32;34008;-80
2023/10/23 08:34:07;;;;;;;1.12;1.10;;;;;;;18.02;59.79;100028.41;4419977;32;32904;-81
2023/10/23 08:36:36;;;;;;;0.98;0.93;;;;;;;18.04;60.83;100021.16;4417342;32;33139;-81
2023/10/23 08:39:03;;;;;;;1.95;1.25;;;;;;;18.28;58.67;100017.72;4418753;32;32343;-81
2023/10/23 08:41:32;;;;;;;2.03;1.12;;;;;;;18.61;58.11;100019.72;4420254;32;32933;-81
2023/10/23 08:44:00;;;;;;;2.12;1.55;;;;;;;18.51;57.46;100016.84;4421968;32;32975;-81
2023/10/23 08:46:31;;;;;;;1.55;1.00;;;;;;;18.67;57.03;100014.78;4428050;32;34103;-80
2023/10/23 08:49:01;;;;;;;7.60;0.37;;;;;;;19.20;55.04;100006.41;4424701;32;33316;-81
2023/10/23 08:51:30;;;;;;;2.37;1.55;;;;;;;19.37;53.92;100003.31;4460570;32;32722;-81
2023/10/23 08:54:06;;;;;;;1.65;0.62;;;;;;;19.13;53.98;99999.78;4458431;32;34032;-81
2023/10/23 08:56:41;;;;;;;0.40;0.40;;;;;;;19.21;55.50;100009.94;4462083;32;34300;-81
2023/10/23 08:59:15;;;;;;;;;;;;;;;19.34;52.62;100000.00;4451800;32;32511;-80
2023/10/23 09:01:43;;;;;;;;;;;;;;;19.23;52.10;100013.34;4451315;32;33931;-81
2023/10/23 09:04:10;;;;;;;;;;;;;;;19.41;50.83;100010.09;4472910;32;34766;-80
2023/10/23 09:06:40;;;;;;;;;;;;;;;19.43;50.53;100013.53;4462933;32;34506;-80
2023/10/23 09:09:08;;;;;;;;;;;;;;;19.86;49.62;100020.09;4474092;32;34548;-80
2023/10/23 09:11:46;;;;;;;;;;;;;;;19.75;49.81;100022.72;4472701;32;34246;-80
2023/10/23 09:14:23;;;;;;;;;;;;;;;19.94;50.21;100017.66;4459817;32;33012;-80
2023/10/23 09:16:51;;;;;;;;;;;;;;;19.95;49.52;100019.34;4470212;32;35257;-82
2023/10/23 09:19:23;;;;;;;;;;;;;;;20.13;49.31;100017.91;4461653;32;33480;-83
2023/10/23 09:21:55;;;;;;;;;;;;;;;20.31;49.42;100020.06;4470922;32;34179;-81
2023/10/23 09:24:23;;;;;;;;;;;;;;;20.82;47.40;100012.28;4471879;32;33661;-81
2023/10/23 09:26:51;;;;;;;;;;;;;;;20.64;46.92;100017.34;4472002;32;34110;-82
2023/10/23 09:29:20;;;;;;;;;;;;;;;20.57;47.05;100020.66;4464269;32;33245;-81
2023/10/23 09:31:48;;;;;;;;;;;;;;;20.90;46.91;100003.63;4459008;32;34165;-81
2023/10/23 09:34:18;;;;;;;;;;;;;;;20.65;47.35;100013.69;4472413;32;32740;-81
2023/10/23 09:36:51;;;;;;;;;;;;;;;20.72;46.67;100008.66;4474717;32;34301;-81
2023/10/23 09:39:21;;;;;;;;;;;;;;;20.93;46.41;100006.03;4451712;32;33248;-81
2023/10/23 09:41:48;;;;;;;;;;;;;;;20.92;47.47;100004.31;4459642;32;33311;-81
2023/10/23 09:44:17;;;;;;;;;;;;;;;21.34;46.19;100004.41;4472048;32;34911;-81
2023/10/23 09:46:47;;;;;;;0.67;0.67;;;;;;;21.39;45.47;100012.91;4461521;32;34106;-81
2023/10/23 09:49:17;;;;;;;0.37;0.37;;;;;;;21.59;44.01;100005.84;4459763;32;32548;-81
2023/10/23 09:51:48;;;;;;;0.70;0.62;;;;;;;21.35;46.13;100003.41;4461637;32;33128;-81
2023/10/23 09:54:17;;;;;;;1.45;1.05;;;;;;;21.62;44.52;100013.63;4463228;32;33063;-82
2023/10/23 09:56:53;;;;;;;3.72;1.25;;;;;;;21.39;45.31;100012.91;4471456;32;33880;-81
2023/10/23 09:59:33;;;;;;;1.95;1.40;;;;;;;21.69;44.24;100004.91;4460703;32;33717;-81
2023/10/23 10:02:02;;;;;;;0.68;0.68;;;;;;;21.41;45.52;100000.19;4472740;32;33179;-81
2023/10/23 10:04:43;;;;;;;0.90;0.68;;;;;;;21.80;45.34;99992.38;4461209;32;33636;-81
2023/10/23 10:07:15;;;;;;;0.98;0.45;;;;;;;21.92;44.81;99999.34;4477705;32;33343;-81
2023/10/23 10:09:44;;;;;;;0.25;0.25;;;;;;;21.50;44.38;99988.66;4463648;32;33020;-81
2023/10/23 10:12:11;;;;;;;0.20;0.20;;;;;;;21.38;47.31;99984.38;4473457;32;32883;-81
2023/10/23 10:14:40;;;;;;;0.40;0.32;;;;;;;21.72;45.50;99987.66;4460390;32;33432;-81
2023/10/23 10:17:10;;;;;;;0.30;0.25;;;;;;;21.71;45.06;99986.81;4473936;32;34778;-81
2023/10/23 10:19:39;;;;;;;7.72;0.80;;;;;;;21.88;44.92;99979.94;4463032;32;33130;-81
2023/10/23 10:22:20;;;;;;;0.25;0.13;;;;;;;22.03;45.70;99985.84;4463573;32;33861;-81
2023/10/23 10:24:48;;;;;;;0.30;0.20;;;;;;;22.08;44.22;99983.59;4458272;32;33061;-81
2023/10/23 10:27:16;;;;;;;1.30;1.20;;;;;;;22.09;44.66;99990.66;4461775;32;33979;-81
2023/10/23 10:29:44;;;;;;;0.15;0.15;;;;;;;22.40;43.56;99979.88;4463458;32;33490;-82
2023/10/23 10:32:12;;;;;;;0.05;0.05;;;;;;;21.84;45.38;99980.34;4464083;32;33684;-82
2023/10/23 10:34:50;;;;;;;0.30;0.30;;;;;;;22.23;44.89;99984.09;4461346;32;33205;-82
2023/10/23 10:37:40;;;;;;;0.10;0.08;;;;;;;22.37;44.11;99972.09;4459573;32;34561;-83
2023/10/23 10:40:09;;;;;;;0.10;0.10;;;;;;;22.35;44.59;99974.06;4463926;32;33025;-82
2023/10/23 10:42:38;;;;;;;0.25;0.25;;;;;;;22.19;44.23;99969.22;4459896;32;33251;-82
2023/10/23 10:45:07;;;;;;;0.25;0.25;;;;;;;22.38;44.19;99968.41;4459778;32;34749;-82
2023/10/23 10:47:38;;;;;;;0.13;0.10;;;;;;;22.44;43.68;99962.47;4464678;32;34915;-82
2023/10/23 10:50:07;;;;;;;2.58;0.47;;;;;;;22.66;43.72;99953.28;4474942;32;33595;-83
2023/10/23 10:52:39;;;;;;;2.83;1.65;;;;;;;22.70;43.12;99962.78;4473743;32;34786;-82
2023/10/23 10:55:09;;;;;;;0.73;0.30;;;;;;;22.70;44.06;99952.88;4458445;32;33369;-82
2023/10/23 10:57:40;;;;;;;0.22;0.10;;;;;;;22.71;43.42;99959.94;4461565;32;34232;-83
2023/10/23 11:00:12;;;;;;;0.68;0.68;;;;;;;22.89;43.30;99954.75;4460204;32;32554;-82
2023/10/23 11:02:40;;;;;;;0.10;0.10;;;;;;;22.95;43.51;99958.72;4450924;32;33441;-82
2023/10/23 11:05:12;;;;;;;0.00;0.00;;;;;;;23.13;43.45;99965.09;4453348;32;33369;-83
2023/10/23 11:07:40;;;;;;;0.10;0.10;;;;;;;23.03;43.59;99961.56;4452240;32;34133;-82
2023/10/23 11:10:09;;;;;;;0.00;0.00;;;;;;;22.80;44.19;99962.81;4448735;32;34028;-82
2023/10/23 11:12:37;;;;;;;2.62;0.60;;;;;;;22.80;44.72;99963.66;4450046;32;33376;-82
2023/10/23 11:15:06;;;;;;;3.25;1.33;;;;;;;22.91;44.23;99954.59;4450977;32;33216;-83
2023/10/23 11:17:35;;;;;;;0.80;0.37;;;;;;;23.44;43.04;99951.41;4452874;32;34416;-82
2023/10/23 11:20:08;;;;;;;0.80;0.40;;;;;;;23.30;43.46;99954.56;4448270;32;33811;-82
2023/10/23 11:22:43;;;;;;;0.10;0.10;;;;;;;23.14;44.60;99952.47;4448164;32;34190;-82
2023/10/23 11:25:12;;;;;;;0.00;0.00;;;;;;;23.22;44.17;99953.44;4448635;32;33366;-82
2023/10/23 11:27:40;;;;;;;0.17;0.15;;;;;;;23.42;44.29;99950.72;4449528;32;33762;-82
2023/10/23 11:30:09;;;;;;;1.45;0.68;;;;;;;23.55;43.38;99945.84;4459191;32;33764;-82
2023/10/23 11:32:37;;;;;;;0.25;0.25;;;;;;;23.57;43.96;99938.47;4455287;32;33650;-82
2023/10/23 11:35:06;;;;;;;1.45;0.70;;;;;;;23.35;43.73;99930.72;4447112;32;32635;-82
2023/10/23 11:37:41;;;;;;;0.10;0.10;;;;;;;23.35;43.88;99936.09;4461817;32;33498;-83
2023/10/23 11:40:10;;;;;;;0.20;0.10;;;;;;;23.17;44.83;99928.78;4446389;32;32981;-82
2023/10/23 11:42:42;;;;;;;0.55;0.55;;;;;;;23.37;43.92;99918.81;4459095;32;32944;-82